sensor_id;sensor_type;location;lat;lon;timestamp;pressure;altitude;pressure_sealevel;temperature;humidity
38912;BME280;28444;48.056;14.408;2023-02-23T00:01:51;97238.53;;;6.72;87.80
38912;BME280;28444;48.056;14.408;2023-02-23T00:04:18;97238.72;;;6.67;88.09
38912;BME280;28444;48.056;14.408;2023-02-23T00:06:44;97235.97;;;6.59;88.11
38912;BME280;28444;48.056;14.408;2023-02-23T00:09:11;97243.06;;;6.55;88.39
38912;BME280;28444;48.056;14.408;2023-02-23T00:11:53;97237.25;;;6.50;89.11
38912;BME280;28444;48.056;14.408;2023-02-23T00:14:23;97240.50;;;6.49;88.68
38912;BME280;28444;48.056;14.408;2023-02-23T00:16:55;97240.13;;;6.45;89.57
38912;BME280;28444;48.056;14.408;2023-02-23T00:19:23;97242.13;;;6.37;90.21
38912;BME280;28444;48.056;14.408;2023-02-23T00:21:51;97241.19;;;6.26;90.42
38912;BME280;28444;48.056;14.408;2023-02-23T00:24:18;97247.13;;;6.10;90.87
38912;BME280;28444;48.056;14.408;2023-02-23T00:26:47;97244.59;;;6.12;91.38
38912;BME280;28444;48.056;14.408;2023-02-23T00:29:24;97244.22;;;6.08;91.50
38912;BME280;28444;48.056;14.408;2023-02-23T00:31:51;97241.31;;;6.06;90.90
38912;BME280;28444;48.056;14.408;2023-02-23T00:34:19;97248.03;;;6.05;91.40
38912;BME280;28444;48.056;14.408;2023-02-23T00:36:51;97249.44;;;5.98;91.58
38912;BME280;28444;48.056;14.408;2023-02-23T00:39:20;97250.34;;;5.93;91.76
38912;BME280;28444;48.056;14.408;2023-02-23T00:41:52;97253.16;;;5.87;92.28
38912;BME280;28444;48.056;14.408;2023-02-23T00:44:21;97247.03;;;5.87;92.38
38912;BME280;28444;48.056;14.408;2023-02-23T00:46:49;97250.28;;;5.85;92.67
38912;BME280;28444;48.056;14.408;2023-02-23T00:49:18;97251.00;;;5.86;92.23
38912;BME280;28444;48.056;14.408;2023-02-23T00:51:45;97251.16;;;5.80;92.62
38912;BME280;28444;48.056;14.408;2023-02-23T00:54:14;97253.50;;;5.76;92.81
38912;BME280;28444;48.056;14.408;2023-02-23T00:56:41;97253.50;;;5.76;92.83
38912;BME280;28444;48.056;14.408;2023-02-23T00:59:08;97250.19;;;5.70;92.23
38912;BME280;28444;48.056;14.408;2023-02-23T01:01:35;97256.72;;;5.67;92.34
38912;BME280;28444;48.056;14.408;2023-02-23T01:04:04;97251.25;;;5.59;92.24
38912;BME280;28444;48.056;14.408;2023-02-23T01:06:31;97255.03;;;5.56;92.29
38912;BME280;28444;48.056;14.408;2023-02-23T01:08:58;97259.88;;;5.50;92.73
38912;BME280;28444;48.056;14.408;2023-02-23T01:11:27;97255.53;;;5.47;92.64
38912;BME280;28444;48.056;14.408;2023-02-23T01:13:58;97262.91;;;5.39;92.43
38912;BME280;28444;48.056;14.408;2023-02-23T01:16:27;97252.91;;;5.34;92.94
38912;BME280;28444;48.056;14.408;2023-02-23T01:18:57;97261.94;;;5.28;93.17
38912;BME280;28444;48.056;14.408;2023-02-23T01:21:27;97257.38;;;5.23;93.79
38912;BME280;28444;48.056;14.408;2023-02-23T01:23:55;97260.44;;;5.20;94.27
38912;BME280;28444;48.056;14.408;2023-02-23T01:26:35;97249.78;;;5.22;93.95
38912;BME280;28444;48.056;14.408;2023-02-23T01:29:08;97248.38;;;5.00;94.85
38912;BME280;28444;48.056;14.408;2023-02-23T01:31:37;97248.03;;;5.03;95.01
38912;BME280;28444;48.056;14.408;2023-02-23T01:34:05;97246.28;;;5.14;94.55
38912;BME280;28444;48.056;14.408;2023-02-23T01:36:34;97249.06;;;5.21;93.76
38912;BME280;28444;48.056;14.408;2023-02-23T01:39:02;97247.94;;;5.17;93.90
38912;BME280;28444;48.056;14.408;2023-02-23T01:41:33;97250.84;;;5.19;94.05
38912;BME280;28444;48.056;14.408;2023-02-23T01:47:12;97240.50;;;5.10;94.87
38912;BME280;28444;48.056;14.408;2023-02-23T01:49:39;97244.63;;;5.11;93.63
38912;BME280;28444;48.056;14.408;2023-02-23T01:52:08;97250.78;;;5.11;93.76
38912;BME280;28444;48.056;14.408;2023-02-23T01:54:40;97243.31;;;5.04;94.06
38912;BME280;28444;48.056;14.408;2023-02-23T01:57:11;97239.44;;;5.13;93.75
38912;BME280;28444;48.056;14.408;2023-02-23T01:59:45;97239.91;;;5.03;93.47
38912;BME280;28444;48.056;14.408;2023-02-23T02:02:12;97247.84;;;5.01;94.33
38912;BME280;28444;48.056;14.408;2023-02-23T02:04:41;97235.69;;;4.95;94.33
38912;BME280;28444;48.056;14.408;2023-02-23T02:07:13;97241.09;;;4.95;94.52
38912;BME280;28444;48.056;14.408;2023-02-23T02:09:42;97244.34;;;4.93;94.98
38912;BME280;28444;48.056;14.408;2023-02-23T02:12:29;97243.28;;;4.96;94.26
38912;BME280;28444;48.056;14.408;2023-02-23T02:14:57;97241.84;;;4.95;93.92
38912;BME280;28444;48.056;14.408;2023-02-23T02:18:03;97236.94;;;4.94;94.16
38912;BME280;28444;48.056;14.408;2023-02-23T02:20:59;97245.22;;;4.88;94.51
38912;BME280;28444;48.056;14.408;2023-02-23T02:27:32;97234.44;;;4.96;93.39
38912;BME280;28444;48.056;14.408;2023-02-23T02:30:01;97242.34;;;4.94;93.71
38912;BME280;28444;48.056;14.408;2023-02-23T02:33:42;97234.72;;;4.85;93.95
38912;BME280;28444;48.056;14.408;2023-02-23T02:36:54;97239.41;;;4.84;94.39
38912;BME280;28444;48.056;14.408;2023-02-23T02:39:50;97238.03;;;4.70;94.91
38912;BME280;28444;48.056;14.408;2023-02-23T02:42:35;97237.81;;;4.68;95.06
38912;BME280;28444;48.056;14.408;2023-02-23T02:45:25;97238.75;;;4.70;94.30
38912;BME280;28444;48.056;14.408;2023-02-23T02:51:25;97247.00;;;4.65;94.53
38912;BME280;28444;48.056;14.408;2023-02-23T02:56:52;97249.47;;;4.55;95.25
38912;BME280;28444;48.056;14.408;2023-02-23T02:59:23;97244.56;;;4.53;94.72
38912;BME280;28444;48.056;14.408;2023-02-23T03:02:18;97253.16;;;4.44;95.47
38912;BME280;28444;48.056;14.408;2023-02-23T03:05:44;97238.88;;;4.44;95.78
38912;BME280;28444;48.056;14.408;2023-02-23T03:08:49;97247.84;;;4.39;95.66
38912;BME280;28444;48.056;14.408;2023-02-23T03:11:39;97252.38;;;4.36;95.87
38912;BME280;28444;48.056;14.408;2023-02-23T03:14:33;97248.47;;;4.45;95.33
38912;BME280;28444;48.056;14.408;2023-02-23T03:17:34;97257.63;;;4.42;94.50
38912;BME280;28444;48.056;14.408;2023-02-23T03:20:53;97253.59;;;4.35;94.73
38912;BME280;28444;48.056;14.408;2023-02-23T03:27:11;97258.69;;;4.39;94.35
38912;BME280;28444;48.056;14.408;2023-02-23T03:30:01;97251.50;;;4.41;93.60
38912;BME280;28444;48.056;14.408;2023-02-23T03:32:51;97257.22;;;4.38;93.42
38912;BME280;28444;48.056;14.408;2023-02-23T03:35:47;97261.66;;;4.48;92.91
38912;BME280;28444;48.056;14.408;2023-02-23T03:39:03;97263.13;;;4.49;92.94
38912;BME280;28444;48.056;14.408;2023-02-23T03:41:45;97261.66;;;4.48;92.47
38912;BME280;28444;48.056;14.408;2023-02-23T03:44:36;97262.59;;;4.51;92.53
38912;BME280;28444;48.056;14.408;2023-02-23T03:47:26;97266.16;;;4.46;92.75
38912;BME280;28444;48.056;14.408;2023-02-23T03:50:42;97269.50;;;4.39;92.93
38912;BME280;28444;48.056;14.408;2023-02-23T03:53:38;97267.38;;;4.24;94.04
38912;BME280;28444;48.056;14.408;2023-02-23T03:56:26;97262.19;;;4.26;93.88
38912;BME280;28444;48.056;14.408;2023-02-23T03:59:14;97260.91;;;4.27;93.94
38912;BME280;28444;48.056;14.408;2023-02-23T04:02:03;97261.84;;;4.29;93.53
38912;BME280;28444;48.056;14.408;2023-02-23T04:04:50;97263.22;;;4.23;93.90
38912;BME280;28444;48.056;14.408;2023-02-23T04:07:37;97264.50;;;4.22;94.04
38912;BME280;28444;48.056;14.408;2023-02-23T04:10:27;97270.63;;;4.22;93.96
38912;BME280;28444;48.056;14.408;2023-02-23T04:13:17;97265.63;;;4.26;93.77
38912;BME280;28444;48.056;14.408;2023-02-23T04:16:08;97265.94;;;4.23;93.52
38912;BME280;28444;48.056;14.408;2023-02-23T04:18:37;97271.47;;;4.17;93.79
38912;BME280;28444;48.056;14.408;2023-02-23T04:21:06;97272.09;;;4.10;94.17
38912;BME280;28444;48.056;14.408;2023-02-23T04:23:33;97268.16;;;4.11;94.25
38912;BME280;28444;48.056;14.408;2023-02-23T04:26:00;97269.13;;;4.00;94.61
38912;BME280;28444;48.056;14.408;2023-02-23T04:28:27;97271.84;;;4.00;94.44
38912;BME280;28444;48.056;14.408;2023-02-23T04:30:54;97274.31;;;3.98;94.44
38912;BME280;28444;48.056;14.408;2023-02-23T04:33:21;97268.41;;;3.86;94.72
38912;BME280;28444;48.056;14.408;2023-02-23T04:35:52;97275.69;;;3.92;94.63
38912;BME280;28444;48.056;14.408;2023-02-23T04:38:19;97279.00;;;3.98;94.48
38912;BME280;28444;48.056;14.408;2023-02-23T04:40:48;97285.06;;;3.91;95.09
38912;BME280;28444;48.056;14.408;2023-02-23T04:43:14;97272.66;;;3.95;95.63
38912;BME280;28444;48.056;14.408;2023-02-23T04:45:41;97282.84;;;4.02;94.82
38912;BME280;28444;48.056;14.408;2023-02-23T04:48:09;97279.22;;;4.00;94.93
38912;BME280;28444;48.056;14.408;2023-02-23T04:50:36;97281.41;;;3.88;94.83
38912;BME280;28444;48.056;14.408;2023-02-23T04:53:02;97280.91;;;3.90;95.05
38912;BME280;28444;48.056;14.408;2023-02-23T04:55:29;97277.34;;;3.95;94.55
38912;BME280;28444;48.056;14.408;2023-02-23T04:57:57;97279.66;;;3.91;94.19
38912;BME280;28444;48.056;14.408;2023-02-23T05:00:25;97273.09;;;3.86;94.92
38912;BME280;28444;48.056;14.408;2023-02-23T05:02:52;97275.59;;;3.84;94.73
38912;BME280;28444;48.056;14.408;2023-02-23T05:05:19;97279.00;;;3.98;94.44
38912;BME280;28444;48.056;14.408;2023-02-23T05:07:46;97278.47;;;3.99;94.04
38912;BME280;28444;48.056;14.408;2023-02-23T05:10:13;97283.38;;;4.01;93.86
38912;BME280;28444;48.056;14.408;2023-02-23T05:12:40;97273.50;;;4.03;93.55
38912;BME280;28444;48.056;14.408;2023-02-23T05:15:07;97275.75;;;4.13;92.87
38912;BME280;28444;48.056;14.408;2023-02-23T05:17:38;97270.97;;;4.05;92.99
38912;BME280;28444;48.056;14.408;2023-02-23T05:20:08;97270.16;;;4.10;92.87
38912;BME280;28444;48.056;14.408;2023-02-23T05:22:36;97258.34;;;4.21;92.56
38912;BME280;28444;48.056;14.408;2023-02-23T05:25:04;97267.53;;;4.18;92.28
38912;BME280;28444;48.056;14.408;2023-02-23T05:27:31;97270.16;;;4.10;92.59
38912;BME280;28444;48.056;14.408;2023-02-23T05:29:58;97271.78;;;4.14;91.92
38912;BME280;28444;48.056;14.408;2023-02-23T05:32:24;97275.75;;;4.13;92.07
38912;BME280;28444;48.056;14.408;2023-02-23T05:34:51;97270.41;;;4.20;91.60
38912;BME280;28444;48.056;14.408;2023-02-23T05:37:18;97269.28;;;4.16;91.67
38912;BME280;28444;48.056;14.408;2023-02-23T05:39:46;97266.97;;;4.20;91.29
38912;BME280;28444;48.056;14.408;2023-02-23T05:42:12;97265.31;;;4.17;91.24
38912;BME280;28444;48.056;14.408;2023-02-23T05:44:39;97277.84;;;4.06;91.66
38912;BME280;28444;48.056;14.408;2023-02-23T05:47:06;97280.38;;;3.91;92.85
38912;BME280;28444;48.056;14.408;2023-02-23T05:49:32;97273.75;;;3.79;93.24
38912;BME280;28444;48.056;14.408;2023-02-23T05:51:59;97273.75;;;3.79;93.48
38912;BME280;28444;48.056;14.408;2023-02-23T05:54:26;97274.16;;;3.70;94.04
38912;BME280;28444;48.056;14.408;2023-02-23T05:56:53;97283.94;;;3.73;93.76
38912;BME280;28444;48.056;14.408;2023-02-23T05:59:19;97282.69;;;3.74;94.44
38912;BME280;28444;48.056;14.408;2023-02-23T06:01:46;97288.41;;;3.83;93.81
38912;BME280;28444;48.056;14.408;2023-02-23T06:04:13;97284.75;;;3.81;93.81
38912;BME280;28444;48.056;14.408;2023-02-23T06:06:39;97286.84;;;3.75;94.26
38912;BME280;28444;48.056;14.408;2023-02-23T06:09:06;97283.06;;;3.91;93.70
38912;BME280;28444;48.056;14.408;2023-02-23T06:11:33;97286.09;;;3.88;93.44
38912;BME280;28444;48.056;14.408;2023-02-23T06:13:59;97287.75;;;3.91;92.87
38912;BME280;28444;48.056;14.408;2023-02-23T06:16:26;97290.78;;;3.87;93.22
38912;BME280;28444;48.056;14.408;2023-02-23T06:18:54;97294.03;;;3.85;93.31
38912;BME280;28444;48.056;14.408;2023-02-23T06:21:20;97303.91;;;3.83;93.56
38912;BME280;28444;48.056;14.408;2023-02-23T06:23:47;97304.31;;;3.87;93.33
38912;BME280;28444;48.056;14.408;2023-02-23T06:26:14;97302.66;;;3.84;94.11
38912;BME280;28444;48.056;14.408;2023-02-23T06:28:40;97301.94;;;3.70;95.26
38912;BME280;28444;48.056;14.408;2023-02-23T06:31:07;97311.94;;;3.75;95.45
38912;BME280;28444;48.056;14.408;2023-02-23T06:33:34;97310.97;;;3.86;94.50
38912;BME280;28444;48.056;14.408;2023-02-23T06:36:00;97304.72;;;3.91;94.43
38912;BME280;28444;48.056;14.408;2023-02-23T06:38:27;97305.22;;;4.03;93.41
38912;BME280;28444;48.056;14.408;2023-02-23T06:40:54;97323.41;;;4.16;93.41
38912;BME280;28444;48.056;14.408;2023-02-23T06:43:21;97320.94;;;4.18;93.09
38912;BME280;28444;48.056;14.408;2023-02-23T06:45:49;97320.50;;;4.14;92.94
38912;BME280;28444;48.056;14.408;2023-02-23T06:48:15;97323.53;;;4.10;93.19
38912;BME280;28444;48.056;14.408;2023-02-23T06:50:43;97328.03;;;4.07;93.17
38912;BME280;28444;48.056;14.408;2023-02-23T06:53:09;97327.78;;;4.19;93.14
38912;BME280;28444;48.056;14.408;2023-02-23T06:55:36;97335.69;;;4.17;93.38
38912;BME280;28444;48.056;14.408;2023-02-23T06:58:02;97332.34;;;4.24;93.51
38912;BME280;28444;48.056;14.408;2023-02-23T07:00:30;97328.28;;;4.30;93.27
38912;BME280;28444;48.056;14.408;2023-02-23T07:02:56;97330.50;;;4.19;93.31
38912;BME280;28444;48.056;14.408;2023-02-23T07:05:25;97336.34;;;4.09;93.82
38912;BME280;28444;48.056;14.408;2023-02-23T07:07:52;97330.50;;;4.05;94.46
38912;BME280;28444;48.056;14.408;2023-02-23T07:10:18;97333.19;;;4.19;94.01
38912;BME280;28444;48.056;14.408;2023-02-23T07:12:45;97340.84;;;4.41;93.46
38912;BME280;28444;48.056;14.408;2023-02-23T07:15:12;97343.97;;;4.45;92.89
38912;BME280;28444;48.056;14.408;2023-02-23T07:17:39;97341.25;;;4.45;93.32
38912;BME280;28444;48.056;14.408;2023-02-23T07:20:07;97339.25;;;4.46;93.52
38912;BME280;28444;48.056;14.408;2023-02-23T07:22:33;97338.94;;;4.49;93.82
38912;BME280;28444;48.056;14.408;2023-02-23T07:25:00;97329.91;;;4.68;93.20
38912;BME280;28444;48.056;14.408;2023-02-23T07:27:27;97340.06;;;4.88;92.04
38912;BME280;28444;48.056;14.408;2023-02-23T07:29:53;97340.72;;;5.02;91.55
38912;BME280;28444;48.056;14.408;2023-02-23T07:32:20;97348.03;;;5.15;91.31
38912;BME280;28444;48.056;14.408;2023-02-23T07:34:47;97343.81;;;5.27;90.32
38912;BME280;28444;48.056;14.408;2023-02-23T07:37:14;97346.03;;;5.36;89.79
38912;BME280;28444;48.056;14.408;2023-02-23T07:39:42;97337.44;;;5.45;90.31
38912;BME280;28444;48.056;14.408;2023-02-23T07:42:09;97332.53;;;5.44;89.77
38912;BME280;28444;48.056;14.408;2023-02-23T07:44:36;97339.66;;;5.54;90.10
38912;BME280;28444;48.056;14.408;2023-02-23T07:47:03;97341.63;;;5.54;90.02
38912;BME280;28444;48.056;14.408;2023-02-23T07:49:30;97341.00;;;5.69;90.14
38912;BME280;28444;48.056;14.408;2023-02-23T07:51:58;97339.06;;;5.77;89.26
38912;BME280;28444;48.056;14.408;2023-02-23T07:54:24;97340.31;;;5.76;89.39
38912;BME280;28444;48.056;14.408;2023-02-23T07:56:52;97346.84;;;5.80;89.03
38912;BME280;28444;48.056;14.408;2023-02-23T07:59:19;97349.81;;;5.90;89.02
38912;BME280;28444;48.056;14.408;2023-02-23T08:01:45;97356.81;;;6.07;88.72
38912;BME280;28444;48.056;14.408;2023-02-23T08:04:12;97355.34;;;6.06;87.64
38912;BME280;28444;48.056;14.408;2023-02-23T08:06:39;97355.91;;;6.12;87.69
38912;BME280;28444;48.056;14.408;2023-02-23T08:09:05;97353.06;;;6.17;88.38
38912;BME280;28444;48.056;14.408;2023-02-23T08:11:32;97353.94;;;6.20;88.17
38912;BME280;28444;48.056;14.408;2023-02-23T08:13:59;97356.50;;;6.18;87.96
38912;BME280;28444;48.056;14.408;2023-02-23T08:16:30;97358.84;;;6.21;89.14
38912;BME280;28444;48.056;14.408;2023-02-23T08:18:57;97349.22;;;6.13;88.30
38912;BME280;28444;48.056;14.408;2023-02-23T08:21:28;97356.16;;;6.29;88.23
38912;BME280;28444;48.056;14.408;2023-02-23T08:23:56;97363.09;;;6.45;88.29
38912;BME280;28444;48.056;14.408;2023-02-23T08:26:23;97359.13;;;6.46;88.31
38912;BME280;28444;48.056;14.408;2023-02-23T08:28:52;97359.50;;;6.50;88.42
38912;BME280;28444;48.056;14.408;2023-02-23T08:31:18;97358.44;;;6.54;89.45
38912;BME280;28444;48.056;14.408;2023-02-23T08:33:50;97361.19;;;6.69;88.67
38912;BME280;28444;48.056;14.408;2023-02-23T08:36:17;97368.44;;;6.74;88.60
38912;BME280;28444;48.056;14.408;2023-02-23T08:38:44;97366.84;;;6.86;88.13
38912;BME280;28444;48.056;14.408;2023-02-23T08:41:10;97371.03;;;7.03;87.55
38912;BME280;28444;48.056;14.408;2023-02-23T08:43:37;97370.09;;;7.08;86.87
38912;BME280;28444;48.056;14.408;2023-02-23T08:46:05;97363.94;;;7.15;86.84
38912;BME280;28444;48.056;14.408;2023-02-23T08:48:33;97363.59;;;7.26;86.49
38912;BME280;28444;48.056;14.408;2023-02-23T08:51:00;97368.50;;;7.35;85.69
38912;BME280;28444;48.056;14.408;2023-02-23T08:53:27;97367.03;;;7.50;85.33
38912;BME280;28444;48.056;14.408;2023-02-23T08:55:59;97364.13;;;7.47;85.27
38912;BME280;28444;48.056;14.408;2023-02-23T08:58:27;97368.66;;;7.60;84.48
38912;BME280;28444;48.056;14.408;2023-02-23T09:00:56;97375.00;;;7.70;84.21
38912;BME280;28444;48.056;14.408;2023-02-23T09:03:23;97368.09;;;7.77;84.50
38912;BME280;28444;48.056;14.408;2023-02-23T09:05:52;97374.06;;;7.83;83.83
38912;BME280;28444;48.056;14.408;2023-02-23T09:08:18;97369.47;;;8.01;83.14
38912;BME280;28444;48.056;14.408;2023-02-23T09:10:45;97380.00;;;8.05;82.89
38912;BME280;28444;48.056;14.408;2023-02-23T09:13:12;97374.53;;;8.12;82.66
38912;BME280;28444;48.056;14.408;2023-02-23T09:15:40;97372.53;;;8.13;82.63
38912;BME280;28444;48.056;14.408;2023-02-23T09:18:08;97369.78;;;8.20;82.25
38912;BME280;28444;48.056;14.408;2023-02-23T09:20:36;97370.16;;;8.25;82.31
38912;BME280;28444;48.056;14.408;2023-02-23T09:23:02;97368.13;;;8.33;81.42
38912;BME280;28444;48.056;14.408;2023-02-23T09:25:29;97368.47;;;8.37;80.89
38912;BME280;28444;48.056;14.408;2023-02-23T09:27:56;97371.41;;;8.39;80.97
38912;BME280;28444;48.056;14.408;2023-02-23T09:30:26;97375.19;;;8.43;80.38
38912;BME280;28444;48.056;14.408;2023-02-23T09:32:54;97372.56;;;8.53;79.80
38912;BME280;28444;48.056;14.408;2023-02-23T09:35:23;97369.13;;;8.53;80.53
38912;BME280;28444;48.056;14.408;2023-02-23T09:37:52;97371.81;;;8.60;80.23
38912;BME280;28444;48.056;14.408;2023-02-23T09:40:26;97374.69;;;8.70;80.30
38912;BME280;28444;48.056;14.408;2023-02-23T09:45:41;97369.72;;;9.09;79.62
38912;BME280;28444;48.056;14.408;2023-02-23T09:50:39;97375.84;;;9.42;78.29
38912;BME280;28444;48.056;14.408;2023-02-23T09:53:23;97378.22;;;9.63;78.51
38912;BME280;28444;48.056;14.408;2023-02-23T09:55:54;97373.19;;;9.77;77.21
38912;BME280;28444;48.056;14.408;2023-02-23T09:58:28;97370.84;;;9.91;76.12
38912;BME280;28444;48.056;14.408;2023-02-23T10:04:38;97372.44;;;9.94;76.16
38912;BME280;28444;48.056;14.408;2023-02-23T10:08:30;97365.84;;;9.79;75.97
38912;BME280;28444;48.056;14.408;2023-02-23T10:15:36;97361.75;;;10.05;75.33
38912;BME280;28444;48.056;14.408;2023-02-23T10:21:19;97367.78;;;10.21;76.49
38912;BME280;28444;48.056;14.408;2023-02-23T10:24:18;97368.94;;;10.35;75.50
38912;BME280;28444;48.056;14.408;2023-02-23T10:27:06;97364.16;;;10.53;75.21
38912;BME280;28444;48.056;14.408;2023-02-23T10:29:48;97369.03;;;10.55;75.23
38912;BME280;28444;48.056;14.408;2023-02-23T10:32:26;97368.63;;;10.58;74.96
38912;BME280;28444;48.056;14.408;2023-02-23T10:34:55;97367.91;;;10.58;75.11
38912;BME280;28444;48.056;14.408;2023-02-23T10:37:23;97356.34;;;10.50;75.61
38912;BME280;28444;48.056;14.408;2023-02-23T10:39:51;97357.22;;;10.52;75.61
38912;BME280;28444;48.056;14.408;2023-02-23T10:42:24;97354.59;;;10.27;75.48
38912;BME280;28444;48.056;14.408;2023-02-23T10:44:58;97355.66;;;10.32;75.93
38912;BME280;28444;48.056;14.408;2023-02-23T10:47:30;97346.75;;;10.31;76.40
38912;BME280;28444;48.056;14.408;2023-02-23T10:49:58;97349.38;;;10.39;76.74
38912;BME280;28444;48.056;14.408;2023-02-23T10:55:26;97352.63;;;10.28;76.20
38912;BME280;28444;48.056;14.408;2023-02-23T10:58:20;97340.78;;;10.08;77.73
38912;BME280;28444;48.056;14.408;2023-02-23T11:00:54;97342.22;;;10.09;77.52
38912;BME280;28444;48.056;14.408;2023-02-23T11:03:43;97338.38;;;10.12;77.55
38912;BME280;28444;48.056;14.408;2023-02-23T11:06:33;97342.31;;;10.01;78.25
38912;BME280;28444;48.056;14.408;2023-02-23T11:09:25;97332.13;;;9.84;79.35
38912;BME280;28444;48.056;14.408;2023-02-23T11:14:56;97330.97;;;10.05;78.49
38912;BME280;28444;48.056;14.408;2023-02-23T11:17:34;97327.75;;;10.16;77.81
38912;BME280;28444;48.056;14.408;2023-02-23T11:22:44;97318.44;;;10.36;78.80
38912;BME280;28444;48.056;14.408;2023-02-23T11:25:18;97315.66;;;10.54;78.06
38912;BME280;28444;48.056;14.408;2023-02-23T11:27:48;97309.84;;;10.77;77.05
38912;BME280;28444;48.056;14.408;2023-02-23T11:30:21;97310.75;;;10.89;76.68
38912;BME280;28444;48.056;14.408;2023-02-23T11:32:53;97311.69;;;11.01;76.31
38912;BME280;28444;48.056;14.408;2023-02-23T11:35:27;97309.00;;;11.11;75.65
38912;BME280;28444;48.056;14.408;2023-02-23T11:37:54;97300.78;;;11.11;76.00
38912;BME280;28444;48.056;14.408;2023-02-23T11:40:24;97297.78;;;11.26;75.94
38912;BME280;28444;48.056;14.408;2023-02-23T11:43:14;97297.06;;;11.26;75.42
38912;BME280;28444;48.056;14.408;2023-02-23T11:45:48;97289.41;;;11.24;73.55
38912;BME280;28444;48.056;14.408;2023-02-23T11:48:20;97291.16;;;11.29;73.86
38912;BME280;28444;48.056;14.408;2023-02-23T11:50:48;97285.69;;;11.29;74.15
38912;BME280;28444;48.056;14.408;2023-02-23T11:53:19;97277.34;;;11.37;73.98
38912;BME280;28444;48.056;14.408;2023-02-23T11:55:48;97272.31;;;11.63;73.57
38912;BME280;28444;48.056;14.408;2023-02-23T11:58:28;97279.69;;;11.70;73.81
38912;BME280;28444;48.056;14.408;2023-02-23T12:01:10;97280.38;;;11.80;74.50
38912;BME280;28444;48.056;14.408;2023-02-23T12:03:45;97275.22;;;11.94;74.12
38912;BME280;28444;48.056;14.408;2023-02-23T12:06:33;97274.94;;;11.90;73.06
38912;BME280;28444;48.056;14.408;2023-02-23T12:09:26;97279.97;;;11.74;74.30
38912;BME280;28444;48.056;14.408;2023-02-23T12:12:03;97277.19;;;11.54;74.54
38912;BME280;28444;48.056;14.408;2023-02-23T12:14:52;97277.78;;;11.53;74.35
38912;BME280;28444;48.056;14.408;2023-02-23T12:17:27;97272.72;;;11.40;74.95
38912;BME280;28444;48.056;14.408;2023-02-23T12:20:03;97271.16;;;11.46;75.07
38912;BME280;28444;48.056;14.408;2023-02-23T12:22:38;97271.84;;;11.27;75.92
38912;BME280;28444;48.056;14.408;2023-02-23T12:25:19;97271.84;;;11.27;76.04
38912;BME280;28444;48.056;14.408;2023-02-23T12:28:08;97271.44;;;11.41;74.90
38912;BME280;28444;48.056;14.408;2023-02-23T12:30:52;97257.75;;;11.41;74.76
38912;BME280;28444;48.056;14.408;2023-02-23T12:33:27;97258.19;;;11.47;74.25
38912;BME280;28444;48.056;14.408;2023-02-23T12:36:15;97258.34;;;11.49;74.52
38912;BME280;28444;48.056;14.408;2023-02-23T12:39:00;97262.66;;;11.52;74.09
38912;BME280;28444;48.056;14.408;2023-02-23T12:41:41;97257.63;;;11.48;74.37
38912;BME280;28444;48.056;14.408;2023-02-23T12:44:38;97254.00;;;11.46;74.84
38912;BME280;28444;48.056;14.408;2023-02-23T12:47:19;97255.03;;;11.41;75.46
38912;BME280;28444;48.056;14.408;2023-02-23T12:49:51;97246.50;;;11.46;74.64
38912;BME280;28444;48.056;14.408;2023-02-23T12:52:31;97250.53;;;11.36;75.11
38912;BME280;28444;48.056;14.408;2023-02-23T12:55:00;97250.63;;;10.99;76.74
38912;BME280;28444;48.056;14.408;2023-02-23T12:58:04;97252.47;;;10.87;77.07
38912;BME280;28444;48.056;14.408;2023-02-23T13:00:56;97247.13;;;10.79;78.19
38912;BME280;28444;48.056;14.408;2023-02-23T13:03:32;97243.13;;;10.90;77.98
38912;BME280;28444;48.056;14.408;2023-02-23T13:06:31;97244.44;;;10.98;77.09
38912;BME280;28444;48.056;14.408;2023-02-23T13:09:15;97245.31;;;11.01;77.28
38912;BME280;28444;48.056;14.408;2023-02-23T13:12:12;97240.13;;;11.05;76.76
38912;BME280;28444;48.056;14.408;2023-02-23T13:17:30;97235.94;;;10.94;77.41
38912;BME280;28444;48.056;14.408;2023-02-23T13:20:17;97247.88;;;10.99;78.00
38912;BME280;28444;48.056;14.408;2023-02-23T13:23:25;97249.19;;;10.98;78.15
38912;BME280;28444;48.056;14.408;2023-02-23T13:31:35;97243.41;;;11.03;78.62
38912;BME280;28444;48.056;14.408;2023-02-23T13:34:05;97243.19;;;11.19;78.02
38912;BME280;28444;48.056;14.408;2023-02-23T13:36:34;97242.16;;;11.24;77.18
38912;BME280;28444;48.056;14.408;2023-02-23T13:45:37;97237.16;;;11.49;76.41
38912;BME280;28444;48.056;14.408;2023-02-23T13:47:44;97234.13;;;11.55;75.15
38912;BME280;28444;48.056;14.408;2023-02-23T13:50:30;97235.56;;;11.56;75.37
38912;BME280;28444;48.056;14.408;2023-02-23T13:53:05;97239.91;;;11.59;75.12
38912;BME280;28444;48.056;14.408;2023-02-23T13:55:47;97241.06;;;11.66;75.08
38912;BME280;28444;48.056;14.408;2023-02-23T13:58:26;97232.69;;;11.64;74.96
38912;BME280;28444;48.056;14.408;2023-02-23T14:01:03;97237.13;;;11.78;74.84
38912;BME280;28444;48.056;14.408;2023-02-23T14:03:37;97228.19;;;11.78;74.77
38912;BME280;28444;48.056;14.408;2023-02-23T14:06:05;97235.72;;;11.77;74.68
38912;BME280;28444;48.056;14.408;2023-02-23T14:08:36;97225.59;;;11.80;74.51
38912;BME280;28444;48.056;14.408;2023-02-23T14:11:04;97231.06;;;11.80;74.73
38912;BME280;28444;48.056;14.408;2023-02-23T14:13:34;97224.63;;;11.66;74.91
38912;BME280;28444;48.056;14.408;2023-02-23T14:16:24;97231.53;;;11.57;75.38
38912;BME280;28444;48.056;14.408;2023-02-23T14:19:08;97226.75;;;11.57;75.22
38912;BME280;28444;48.056;14.408;2023-02-23T14:22:09;97219.72;;;11.45;75.78
38912;BME280;28444;48.056;14.408;2023-02-23T14:24:36;97230.78;;;11.47;76.09
38912;BME280;28444;48.056;14.408;2023-02-23T14:29:40;97225.91;;;11.45;76.67
38912;BME280;28444;48.056;14.408;2023-02-23T14:35:01;97219.28;;;11.48;76.05
38912;BME280;28444;48.056;14.408;2023-02-23T14:37:41;97219.56;;;11.43;76.77